Time;durP1;ratioP1;P1;durP2;ratioP2;P2;SDS_P1;SDS_P2;PMS_P1;PMS_P2;Temp;Humidity;BMP_temperature;BMP_pressure;BME280_temperature;BME280_humidity;BME280_pressure;Samples;Min_cycle;Max_cycle;Signal;HPM_P1;HPM_P2
2022/03/14 00:00:06;;;;;;;1.70;1.60;;;;;;;12.06;58.36;101559.09;5069290;28;20050;-84
2022/03/14 00:02:31;;;;;;;1.77;1.67;;;;;;;11.92;58.57;101552.50;5070459;28;20029;-84
2022/03/14 00:04:56;;;;;;;2.50;1.80;;;;;;;11.99;58.59;101561.13;5069202;28;20033;-84
2022/03/14 00:07:22;;;;;;;1.90;1.70;;;;;;;12.02;59.07;101563.63;5071130;28;20075;-85
2022/03/14 00:09:48;;;;;;;1.83;1.70;;;;;;;11.97;59.40;101574.41;5066173;28;20024;-85
2022/03/14 00:12:17;;;;;;;2.28;1.55;;;;;;;11.94;59.23;101565.72;5052494;28;20056;-84
2022/03/14 00:14:42;;;;;;;2.67;1.60;;;;;;;11.99;59.01;101574.38;5070569;28;20048;-84
2022/03/14 00:17:11;;;;;;;2.00;1.67;;;;;;;12.02;58.50;101565.44;5050148;28;20150;-85
2022/03/14 00:19:37;;;;;;;3.15;1.83;;;;;;;12.05;59.32;101579.44;5050882;28;20097;-85
2022/03/14 00:22:04;;;;;;;1.95;1.70;;;;;;;12.03;58.85;101573.34;5068447;28;20472;-85
2022/03/14 00:24:29;;;;;;;2.78;1.80;;;;;;;11.98;58.85;101576.16;5067073;28;20021;-85
2022/03/14 00:26:55;;;;;;;1.88;1.67;;;;;;;11.88;59.23;101577.34;5070262;28;20020;-84
2022/03/14 00:29:21;;;;;;;1.42;1.33;;;;;;;11.94;59.39;101593.06;5071142;28;20391;-85
2022/03/14 00:31:46;;;;;;;2.83;1.92;;;;;;;11.89;59.41;101589.72;5049000;28;20107;-85
2022/03/14 00:34:14;;;;;;;3.13;1.98;;;;;;;11.86;59.52;101588.94;5071101;28;20586;-84
2022/03/14 00:36:42;;;;;;;2.75;2.10;;;;;;;11.94;59.51;101600.16;5050764;28;20403;-85
2022/03/14 00:39:08;;;;;;;2.10;1.80;;;;;;;11.95;59.44;101601.88;5070132;28;20077;-85
2022/03/14 00:41:33;;;;;;;2.10;1.90;;;;;;;11.92;60.11;101601.97;5066581;28;20103;-84
2022/03/14 00:43:59;;;;;;;2.90;1.80;;;;;;;11.83;59.74;101599.63;5069874;28;20032;-84
2022/03/14 00:46:24;;;;;;;2.55;1.90;;;;;;;11.96;59.54;101608.91;5067842;28;20031;-84
2022/03/14 00:48:49;;;;;;;1.77;1.67;;;;;;;11.95;59.54;101605.41;5065947;28;20547;-85
2022/03/14 00:51:15;;;;;;;2.65;1.85;;;;;;;11.92;59.25;101607.28;5047134;28;20035;-84
2022/03/14 00:53:41;;;;;;;2.65;2.20;;;;;;;11.83;59.62;101629.63;5070177;28;20563;-84
2022/03/14 00:56:06;;;;;;;2.00;1.80;;;;;;;11.83;59.79;101627.00;5052004;28;20024;-85
2022/03/14 00:58:33;;;;;;;2.72;2.10;;;;;;;11.87;60.08;101630.41;5069711;28;20074;-84
2022/03/14 01:00:58;;;;;;;2.63;2.10;;;;;;;11.84;59.95;101628.72;5070562;28;20025;-84
2022/03/14 01:03:23;;;;;;;2.35;2.08;;;;;;;11.80;60.11;101626.19;5065130;28;20425;-85
2022/03/14 01:05:49;;;;;;;2.58;2.30;;;;;;;11.81;60.46;101627.94;5068329;28;20650;-84
2022/03/14 01:08:15;;;;;;;2.28;1.85;;;;;;;11.80;60.68;101642.97;5068080;28;20029;-84
2022/03/14 01:10:40;;;;;;;3.15;2.13;;;;;;;11.74;61.13;101637.84;5062941;28;20074;-84
2022/03/14 01:13:06;;;;;;;3.70;1.98;;;;;;;11.68;61.88;101641.56;5068743;28;20024;-85
2022/03/14 01:15:32;;;;;;;2.67;2.30;;;;;;;11.66;61.95;101646.06;5067855;28;20051;-84
2022/03/14 01:17:58;;;;;;;2.75;2.42;;;;;;;11.61;62.17;101647.09;5052149;28;20030;-85
2022/03/14 01:20:24;;;;;;;2.13;1.92;;;;;;;11.62;62.00;101655.03;5069151;28;20028;-85
2022/03/14 01:22:49;;;;;;;2.83;2.20;;;;;;;11.60;61.87;101651.53;5065293;28;20396;-84
2022/03/14 01:25:15;;;;;;;3.00;2.30;;;;;;;11.57;62.36;101650.78;5079595;28;20502;-84
2022/03/14 01:27:40;;;;;;;3.13;2.35;;;;;;;11.54;62.63;101649.09;5051496;28;20032;-85
2022/03/14 01:30:06;;;;;;;2.53;2.28;;;;;;;11.58;62.56;101653.38;5070432;28;20104;-85
2022/03/14 01:32:31;;;;;;;3.22;2.30;;;;;;;11.57;62.50;101656.09;5069393;28;20438;-85
2022/03/14 01:34:57;;;;;;;2.40;2.20;;;;;;;11.63;61.79;101659.38;5068606;28;21105;-85
2022/03/14 01:37:23;;;;;;;3.45;2.67;;;;;;;11.55;62.29;101669.34;5068055;28;20119;-85
2022/03/14 01:39:49;;;;;;;4.70;2.60;;;;;;;11.56;62.45;101656.97;5067208;28;20032;-84
2022/03/14 01:42:18;;;;;;;2.85;2.25;;;;;;;11.51;62.18;101675.66;5069177;28;20036;-84
2022/03/14 01:44:47;;;;;;;3.75;2.72;;;;;;;11.55;62.43;101660.53;5051898;28;20035;-85
2022/03/14 01:47:14;;;;;;;2.47;2.00;;;;;;;11.55;62.54;101666.69;5051535;28;20035;-84
2022/03/14 01:49:40;;;;;;;2.95;2.40;;;;;;;11.55;62.40;101665.84;5068551;28;20405;-84
2022/03/14 01:52:07;;;;;;;3.60;2.55;;;;;;;11.53;62.37;101668.53;5072460;28;20033;-85
2022/03/14 01:54:33;;;;;;;3.00;2.65;;;;;;;11.46;62.91;101669.63;5055201;28;20479;-84
2022/03/14 01:56:59;;;;;;;3.30;2.10;;;;;;;11.52;62.66;101676.50;5054964;28;20111;-84
2022/03/14 01:59:26;;;;;;;3.08;2.33;;;;;;;11.47;62.63;101666.06;5070991;28;20103;-85
2022/03/14 02:01:51;;;;;;;2.78;2.40;;;;;;;11.57;62.32;101677.28;5068275;28;20021;-85
2022/03/14 02:04:17;;;;;;;2.60;2.38;;;;;;;11.58;62.32;101685.16;5072001;28;20544;-85
2022/03/14 02:06:44;;;;;;;4.15;2.50;;;;;;;11.46;63.03;101686.38;5055118;28;20073;-85
2022/03/14 02:09:09;;;;;;;3.60;2.53;;;;;;;11.47;63.29;101692.53;5071171;28;20028;-85
2022/03/14 02:11:34;;;;;;;4.40;2.20;;;;;;;11.49;62.98;101681.00;5072203;28;20024;-84
2022/03/14 02:14:03;;;;;;;4.22;2.88;;;;;;;11.49;63.08;101686.31;5071107;28;20021;-85
2022/03/14 02:16:29;;;;;;;3.30;2.72;;;;;;;11.45;63.21;101689.09;5053587;28;20032;-84
2022/03/14 02:18:56;;;;;;;3.83;2.40;;;;;;;11.51;63.01;101688.88;5074213;28;20152;-85
2022/03/14 02:21:21;;;;;;;2.90;2.60;;;;;;;11.54;62.69;101695.91;5073992;28;20024;-85
2022/03/14 02:23:46;;;;;;;3.65;2.20;;;;;;;11.55;63.53;101698.47;5072396;28;20036;-84
2022/03/14 02:26:12;;;;;;;2.63;2.42;;;;;;;11.53;63.10;101702.09;5074803;28;20024;-85
2022/03/14 02:28:37;;;;;;;3.30;2.42;;;;;;;11.51;63.40;101696.84;5072064;28;20025;-85
2022/03/14 02:31:06;;;;;;;3.45;2.60;;;;;;;11.48;63.76;101699.59;5071638;28;20020;-84
2022/03/14 02:33:32;;;;;;;3.13;2.60;;;;;;;11.38;64.08;101693.72;5072118;28;20017;-85
2022/03/14 02:35:58;;;;;;;3.20;2.72;;;;;;;11.39;63.74;101710.47;5071816;28;20030;-85
2022/03/14 02:38:24;;;;;;;4.22;2.95;;;;;;;11.34;64.08;101721.19;5053205;28;20052;-85
2022/03/14 02:40:49;;;;;;;3.60;2.70;;;;;;;11.30;64.56;101710.72;5070036;28;20043;-85
2022/03/14 02:43:22;;;;;;;4.53;2.60;;;;;;;11.37;64.29;101714.91;5072949;28;20388;-84
2022/03/14 02:45:48;;;;;;;5.22;2.63;;;;;;;11.38;64.49;101716.69;5072056;28;20028;-85
2022/03/14 02:48:14;;;;;;;3.50;2.70;;;;;;;11.29;63.97;101714.31;5072959;28;20091;-85
2022/03/14 02:50:42;;;;;;;4.78;3.03;;;;;;;11.33;64.14;101726.50;5052467;28;20037;-84
2022/03/14 02:53:08;;;;;;;3.85;2.80;;;;;;;11.23;63.79;101723.25;5055187;28;20024;-85
2022/03/14 02:55:35;;;;;;;4.22;3.00;;;;;;;11.18;64.50;101731.31;5071704;28;20408;-85
2022/03/14 02:58:00;;;;;;;3.20;2.90;;;;;;;11.06;64.94;101731.69;5072332;28;20032;-84
2022/03/14 03:00:25;;;;;;;4.88;3.33;;;;;;;11.08;64.71;101739.59;5070856;28;20412;-85
2022/03/14 03:02:51;;;;;;;3.50;2.80;;;;;;;11.14;64.51;101747.34;5053877;28;20025;-85
2022/03/14 03:05:17;;;;;;;2.55;2.35;;;;;;;11.17;64.50;101737.53;5070425;28;20376;-85
2022/03/14 03:07:43;;;;;;;3.30;3.00;;;;;;;11.06;64.75;101737.00;5072415;28;20357;-85
2022/03/14 03:10:09;;;;;;;4.15;3.40;;;;;;;11.12;65.33;101744.75;5069450;28;20020;-85
2022/03/14 03:12:36;;;;;;;3.42;2.92;;;;;;;11.09;65.33;101750.13;5071882;28;20035;-85
2022/03/14 03:15:02;;;;;;;3.30;2.60;;;;;;;11.09;64.99;101763.34;5071732;28;20020;-85
2022/03/14 03:17:27;;;;;;;3.47;3.05;;;;;;;11.11;64.78;101769.47;5071329;28;20040;-85
2022/03/14 03:19:52;;;;;;;3.58;3.00;;;;;;;11.08;65.27;101780.13;5051756;28;20048;-85
2022/03/14 03:22:17;;;;;;;3.00;2.67;;;;;;;11.07;65.50;101782.84;5053057;28;20126;-85
2022/03/14 03:24:43;;;;;;;3.20;2.83;;;;;;;11.05;65.06;101780.25;5071831;28;20020;-85
2022/03/14 03:27:09;;;;;;;3.78;3.17;;;;;;;10.92;65.55;101786.78;5053731;28;20031;-85
2022/03/14 03:29:34;;;;;;;4.25;3.65;;;;;;;10.96;65.12;101794.59;5070140;28;20078;-85
2022/03/14 03:31:59;;;;;;;3.42;2.95;;;;;;;10.81;66.00;101786.16;5053157;28;20024;-85
2022/03/14 03:34:25;;;;;;;3.80;2.92;;;;;;;10.91;65.92;101809.72;5069560;28;20087;-85
2022/03/14 03:36:50;;;;;;;5.05;3.92;;;;;;;10.81;66.72;101815.25;5071655;28;20036;-85
2022/03/14 03:39:15;;;;;;;4.18;3.25;;;;;;;10.69;67.96;101822.59;5068744;28;20515;-85
2022/03/14 03:41:41;;;;;;;6.95;3.20;;;;;;;10.53;68.54;101821.22;5071574;28;20082;-85
2022/03/14 03:44:07;;;;;;;3.35;3.05;;;;;;;10.47;68.78;101824.91;5070505;28;20025;-85
2022/03/14 03:46:33;;;;;;;3.47;3.10;;;;;;;10.50;68.56;101831.03;5071186;28;20025;-85
2022/03/14 03:48:58;;;;;;;3.88;3.38;;;;;;;10.49;68.71;101832.78;5070719;28;20035;-85
2022/03/14 03:51:24;;;;;;;4.10;3.20;;;;;;;10.51;68.55;101840.69;5070235;28;20057;-85
2022/03/14 03:53:49;;;;;;;3.45;3.15;;;;;;;10.50;68.61;101846.91;5053029;28;20107;-84
2022/03/14 03:56:14;;;;;;;4.78;3.50;;;;;;;10.47;68.67;101853.13;5070848;28;20391;-85
2022/03/14 03:58:40;;;;;;;4.30;3.28;;;;;;;10.38;69.18;101854.19;5070980;28;20491;-84
2022/03/14 04:01:05;;;;;;;4.30;3.90;;;;;;;10.45;68.67;101861.09;5069553;28;20024;-84
2022/03/14 04:03:34;;;;;;;4.78;4.32;;;;;;;10.50;68.28;101873.34;5053197;28;20025;-85
2022/03/14 04:06:00;;;;;;;7.38;4.28;;;;;;;10.50;68.83;101870.69;5051338;28;20031;-84
2022/03/14 04:08:29;;;;;;;5.07;4.35;;;;;;;10.43;68.85;101880.53;5053329;28;20040;-85
2022/03/14 04:10:56;;;;;;;4.35;3.78;;;;;;;10.42;69.21;101879.66;5069039;28;20059;-85
2022/03/14 04:13:24;;;;;;;5.00;4.05;;;;;;;10.28;69.93;101891.44;5069120;28;20107;-85
2022/03/14 04:15:52;;;;;;;5.13;4.60;;;;;;;10.32;69.34;101888.72;5052836;28;20422;-84
2022/03/14 04:18:19;;;;;;;7.65;4.30;;;;;;;10.29;70.32;101898.47;5052622;28;20115;-85
2022/03/14 04:20:48;;;;;;;5.63;4.78;;;;;;;10.33;70.07;101902.78;5051159;28;20043;-85
2022/03/14 04:23:14;;;;;;;5.50;4.60;;;;;;;10.26;70.56;101909.09;5071641;28;20031;-85
2022/03/14 04:25:40;;;;;;;6.03;5.10;;;;;;;10.20;70.92;101912.72;5070878;28;20039;-85
2022/03/14 04:28:05;;;;;;;5.90;4.63;;;;;;;10.17;71.10;101918.97;5070270;28;20024;-85
2022/03/14 04:30:30;;;;;;;5.53;4.50;;;;;;;10.12;71.07;101907.63;5070229;28;20507;-85
2022/03/14 04:32:56;;;;;;;5.32;4.30;;;;;;;10.16;71.38;101914.53;5085342;28;20032;-84
2022/03/14 04:35:21;;;;;;;6.35;4.80;;;;;;;10.07;71.98;101909.47;5069082;28;20051;-85
2022/03/14 04:37:47;;;;;;;5.35;4.32;;;;;;;10.07;71.97;101927.97;5069892;28;20412;-85
2022/03/14 04:40:14;;;;;;;6.93;5.55;;;;;;;10.02;72.29;101927.19;5064938;28;20020;-85
2022/03/14 04:42:40;;;;;;;6.53;5.25;;;;;;;9.98;72.30;101928.16;5067290;28;20383;-85
2022/03/14 04:45:06;;;;;;;7.00;4.88;;;;;;;9.94;72.60;101937.06;5083164;28;20052;-85
2022/03/14 04:47:31;;;;;;;7.53;5.38;;;;;;;9.95;72.38;101937.00;5069201;28;20060;-85
2022/03/14 04:49:57;;;;;;;8.13;6.15;;;;;;;9.90;72.86;101945.94;5066155;28;20040;-85
2022/03/14 04:52:22;;;;;;;8.15;5.80;;;;;;;9.89;72.73;101946.84;5069266;28;20456;-85
2022/03/14 04:54:47;;;;;;;6.90;5.68;;;;;;;9.91;72.86;101950.31;5068195;28;20025;-85
2022/03/14 04:57:13;;;;;;;8.07;5.78;;;;;;;9.81;72.45;101944.34;5069629;28;20020;-84
2022/03/14 04:59:38;;;;;;;8.88;5.55;;;;;;;9.86;72.73;101945.13;5067944;28;20035;-85
2022/03/14 05:02:04;;;;;;;9.23;6.32;;;;;;;9.83;72.53;101963.66;5070212;28;20103;-85
2022/03/14 05:04:29;;;;;;;8.60;6.22;;;;;;;9.78;72.81;101954.94;5069752;28;20443;-84
2022/03/14 05:06:55;;;;;;;7.90;6.32;;;;;;;9.74;73.10;101968.25;5068247;28;20025;-85
2022/03/14 05:09:20;;;;;;;8.82;6.18;;;;;;;9.71;73.31;101970.06;5071106;28;20041;-85
2022/03/14 05:11:47;;;;;;;9.70;6.75;;;;;;;9.67;73.53;101978.94;5069663;28;20038;-85
2022/03/14 05:14:13;;;;;;;9.90;6.00;;;;;;;9.66;73.75;101978.97;5071214;28;20024;-85
2022/03/14 05:16:38;;;;;;;9.38;6.28;;;;;;;9.70;72.95;101989.44;5070385;28;20024;-85
2022/03/14 05:19:04;;;;;;;7.57;6.03;;;;;;;9.77;73.13;101991.97;5069918;28;20393;-84
2022/03/14 05:21:29;;;;;;;10.25;6.70;;;;;;;9.81;72.73;101999.81;5051521;28;20361;-85
2022/03/14 05:23:54;;;;;;;10.05;6.53;;;;;;;9.80;72.85;101997.19;5067919;28;20024;-84
2022/03/14 05:26:20;;;;;;;11.45;6.90;;;;;;;9.83;72.49;102002.41;5069622;28;20047;-85
2022/03/14 05:28:45;;;;;;;13.05;6.20;;;;;;;9.77;72.71;102006.03;5074538;28;20032;-84
2022/03/14 05:31:10;;;;;;;11.43;6.60;;;;;;;9.80;72.23;102008.63;5074661;28;20029;-85
2022/03/14 05:33:35;;;;;;;10.32;7.20;;;;;;;9.79;72.53;102009.53;5088839;28;20038;-85
2022/03/14 05:36:01;;;;;;;10.05;7.03;;;;;;;9.87;71.96;102015.53;5060583;28;20546;-85
2022/03/14 05:38:28;;;;;;;10.02;7.28;;;;;;;9.83;71.73;102013.84;5067554;28;20041;-85
2022/03/14 05:40:54;;;;;;;13.00;7.60;;;;;;;9.83;72.43;102034.97;5064103;28;20028;-85
2022/03/14 05:43:20;;;;;;;11.68;8.35;;;;;;;9.85;72.34;102040.25;5073790;28;20023;-85
2022/03/14 05:45:46;;;;;;;12.55;8.32;;;;;;;9.83;71.90;102042.03;5072509;28;20479;-84
2022/03/14 05:48:11;;;;;;;13.68;8.60;;;;;;;9.81;72.18;102046.47;5073488;28;20052;-85
2022/03/14 05:50:36;;;;;;;13.82;7.93;;;;;;;9.83;71.73;102047.31;5053925;28;20418;-84
2022/03/14 05:53:02;;;;;;;15.77;9.25;;;;;;;9.85;72.06;102056.09;5074150;28;20021;-84
2022/03/14 05:55:27;;;;;;;14.65;9.35;;;;;;;9.85;71.99;102064.00;5073563;28;20027;-85
2022/03/14 05:57:53;;;;;;;12.23;8.73;;;;;;;9.85;72.01;102064.88;5072364;28;20106;-85
2022/03/14 06:00:24;;;;;;;11.80;7.70;;;;;;;9.83;72.04;102066.66;5071814;28;20028;-84
2022/03/14 06:02:52;;;;;;;13.38;8.90;;;;;;;9.85;72.04;102069.28;5054994;28;20606;-84
2022/03/14 06:05:19;;;;;;;15.68;9.32;;;;;;;9.87;72.19;102078.06;5071577;28;20506;-84
2022/03/14 06:07:45;;;;;;;19.10;11.60;;;;;;;9.81;72.07;102078.16;5070773;28;20078;-85
2022/03/14 06:10:11;;;;;;;14.68;9.75;;;;;;;9.85;72.35;102088.66;5071806;28;20056;-85
2022/03/14 06:12:36;;;;;;;17.40;9.32;;;;;;;9.84;72.21;102092.19;5069639;28;20020;-85
2022/03/14 06:15:03;;;;;;;15.30;9.48;;;;;;;9.85;71.78;102085.16;5072395;28;20047;-85
2022/03/14 06:17:29;;;;;;;16.83;10.45;;;;;;;9.92;72.48;102100.84;5073171;28;20545;-84
2022/03/14 06:19:54;;;;;;;15.40;9.77;;;;;;;9.93;72.79;102096.44;5053437;28;20063;-85
2022/03/14 06:22:22;;;;;;;16.25;10.38;;;;;;;9.86;72.81;102097.44;5073175;28;20058;-84
2022/03/14 06:24:49;;;;;;;13.25;9.90;;;;;;;9.90;72.33;102104.44;5073267;28;20039;-85
2022/03/14 06:27:15;;;;;;;16.48;10.48;;;;;;;9.88;72.46;102108.84;5070280;28;20599;-85
2022/03/14 06:29:41;;;;;;;17.65;10.35;;;;;;;9.92;72.21;102115.81;5071113;28;20564;-84
2022/03/14 06:32:07;;;;;;;17.90;10.18;;;;;;;9.92;72.20;102116.69;5071896;28;20024;-85
2022/03/14 06:34:32;;;;;;;17.23;11.88;;;;;;;9.93;72.35;102117.56;5053297;28;20051;-83
2022/03/14 06:36:57;;;;;;;19.33;10.70;;;;;;;9.91;72.33;102117.59;5070881;28;20036;-86
2022/03/14 06:39:23;;;;;;;16.83;11.35;;;;;;;9.98;72.01;102126.31;5067704;28;20040;-84
2022/03/14 06:41:48;;;;;;;17.08;11.32;;;;;;;9.96;72.04;102128.94;5072247;28;20171;-85
2022/03/14 06:44:14;;;;;;;17.27;11.05;;;;;;;10.02;71.79;102132.38;5070093;28;20515;-85
2022/03/14 06:46:40;;;;;;;16.23;11.07;;;;;;;10.00;72.04;102135.06;5055444;28;20031;-85
2022/03/14 06:49:06;;;;;;;19.23;10.65;;;;;;;9.99;71.87;102128.03;5069657;28;20023;-84
2022/03/14 06:51:32;;;;;;;19.88;12.32;;;;;;;9.95;72.53;102142.19;5050652;28;20105;-85
2022/03/14 06:53:57;;;;;;;20.45;11.48;;;;;;;10.00;72.10;102150.91;5072548;28;20055;-85
2022/03/14 06:56:22;;;;;;;19.73;12.02;;;;;;;9.94;71.88;102143.09;5055126;28;20066;-85
2022/03/14 06:58:48;;;;;;;16.55;11.68;;;;;;;10.00;71.99;102150.91;5055332;28;20028;-85
2022/03/14 07:01:13;;;;;;;21.60;11.82;;;;;;;10.06;71.96;102155.22;5070520;28;20035;-85
2022/03/14 07:03:38;;;;;;;20.38;11.80;;;;;;;10.12;71.44;102156.00;5070149;28;20427;-85
2022/03/14 07:06:04;;;;;;;18.67;11.13;;;;;;;10.17;71.49;102164.72;5069466;28;20396;-84
2022/03/14 07:08:30;;;;;;;20.65;12.45;;;;;;;10.10;72.23;102168.34;5072274;28;20039;-85
2022/03/14 07:10:55;;;;;;;19.00;12.20;;;;;;;10.05;71.54;102157.00;5072581;28;20021;-85
2022/03/14 07:13:21;;;;;;;19.15;12.90;;;;;;;10.08;71.74;102170.16;5072003;28;20013;-85
2022/03/14 07:15:46;;;;;;;20.05;13.05;;;;;;;10.05;71.90;102175.50;5072876;28;20468;-85
2022/03/14 07:18:11;;;;;;;18.13;11.00;;;;;;;10.04;71.54;102172.88;5071578;28;20025;-85
2022/03/14 07:20:37;;;;;;;18.08;13.05;;;;;;;10.02;71.89;102174.66;5071616;28;20585;-84
2022/03/14 07:23:03;;;;;;;21.85;11.13;;;;;;;10.15;71.18;102170.91;5053986;28;20031;-85
2022/03/14 07:25:30;;;;;;;19.58;11.48;;;;;;;10.28;70.95;102182.19;5071224;28;20039;-85
2022/03/14 07:27:59;;;;;;;19.30;11.15;;;;;;;10.31;70.52;102171.56;5068004;28;20025;-84
2022/03/14 07:30:24;;;;;;;19.83;11.77;;;;;;;10.31;70.67;102182.16;5070384;28;20029;-84
2022/03/14 07:32:50;;;;;;;19.23;11.90;;;;;;;10.31;70.63;102175.09;5051842;28;20471;-85
2022/03/14 07:35:16;;;;;;;22.73;10.77;;;;;;;10.38;70.45;102181.13;5070046;28;20039;-85
2022/03/14 07:37:41;;;;;;;20.65;11.93;;;;;;;10.41;70.61;102191.66;5070644;28;20408;-84
2022/03/14 07:40:08;;;;;;;16.58;10.02;;;;;;;10.32;70.05;102187.41;5070690;28;20024;-84
2022/03/14 07:42:42;;;;;;;18.02;9.98;;;;;;;10.40;70.08;102176.69;5070752;28;20040;-84
2022/03/14 07:45:10;;;;;;;23.27;11.65;;;;;;;10.38;70.05;102183.78;5071092;28;20025;-84
2022/03/14 07:47:35;;;;;;;18.25;11.95;;;;;;;10.54;70.21;102189.63;5068178;28;20031;-85
2022/03/14 07:50:00;;;;;;;17.48;12.00;;;;;;;10.53;69.90;102194.06;5059648;28;20040;-85
2022/03/14 07:52:26;;;;;;;18.40;11.70;;;;;;;10.56;69.69;102191.38;5053354;28;20033;-84
2022/03/14 07:54:51;;;;;;;19.25;12.30;;;;;;;10.62;69.51;102200.97;5065849;28;20090;-84
2022/03/14 07:57:17;;;;;;;18.30;12.07;;;;;;;10.59;69.36;102199.25;5067800;28;20067;-85
2022/03/14 07:59:46;;;;;;;19.50;13.10;;;;;;;10.66;68.94;102210.59;5063564;28;20032;-84
2022/03/14 08:02:11;;;;;;;18.55;12.82;;;;;;;10.76;68.91;102208.63;5064847;28;20070;-84
2022/03/14 08:04:39;;;;;;;21.15;11.68;;;;;;;10.77;68.80;102221.84;5044000;28;20430;-84
2022/03/14 08:07:05;;;;;;;21.02;11.50;;;;;;;10.63;69.22;102223.84;5049974;28;20032;-85
2022/03/14 08:09:32;;;;;;;23.17;12.15;;;;;;;10.68;69.14;102225.53;5069308;28;20039;-85
2022/03/14 08:11:58;;;;;;;22.95;12.20;;;;;;;10.65;69.35;102222.94;5065855;28;20046;-84
2022/03/14 08:14:24;;;;;;;21.73;11.70;;;;;;;10.75;68.82;102233.34;5051968;28;20074;-85
2022/03/14 08:16:49;;;;;;;20.60;12.07;;;;;;;10.78;68.43;102231.53;5051223;28;20028;-84
2022/03/14 08:19:14;;;;;;;22.27;12.18;;;;;;;10.77;69.02;102234.19;5052966;28;20533;-85
2022/03/14 08:21:40;;;;;;;21.98;13.85;;;;;;;10.77;68.63;102242.13;5050907;28;20438;-84
2022/03/14 08:24:06;;;;;;;23.42;13.80;;;;;;;10.75;68.53;102251.88;5071695;28;20116;-84
2022/03/14 08:26:33;;;;;;;23.75;13.10;;;;;;;10.68;69.25;102252.00;5071190;28;20477;-85
2022/03/14 08:29:00;;;;;;;25.65;13.02;;;;;;;10.70;68.69;102250.19;5068626;28;20531;-85
2022/03/14 08:31:26;;;;;;;24.70;11.73;;;;;;;10.67;68.94;102260.78;5070401;28;20025;-84
2022/03/14 08:33:51;;;;;;;24.95;13.80;;;;;;;10.68;68.64;102261.69;5053874;28;20491;-85
2022/03/14 08:36:20;;;;;;;21.80;12.20;;;;;;;10.69;68.84;102259.00;5069064;28;20085;-85
2022/03/14 08:38:46;;;;;;;22.58;13.10;;;;;;;10.75;68.93;102262.44;5059596;28;20132;-84
2022/03/14 08:41:15;;;;;;;21.95;13.02;;;;;;;10.84;68.56;102272.88;5069489;28;20028;-84
2022/03/14 08:43:41;;;;;;;20.58;12.20;;;;;;;10.77;69.07;102276.50;5070194;28;20488;-85
2022/03/14 08:46:06;;;;;;;20.80;12.98;;;;;;;10.91;68.32;102277.13;5070358;28;20063;-85
2022/03/14 08:48:32;;;;;;;22.35;11.20;;;;;;;10.97;67.97;102291.13;5068857;28;20027;-84
2022/03/14 08:50:57;;;;;;;20.77;10.45;;;;;;;10.97;67.63;102290.25;5067631;28;20036;-84
2022/03/14 08:53:22;;;;;;;21.63;13.23;;;;;;;10.98;67.96;102287.56;5052592;28;20078;-85
2022/03/14 08:55:48;;;;;;;24.30;11.45;;;;;;;11.24;67.20;102297.69;5071061;28;20052;-85
2022/03/14 08:58:13;;;;;;;23.38;12.70;;;;;;;11.31;66.83;102302.84;5067758;28;20487;-85
2022/03/14 09:00:39;;;;;;;18.90;11.40;;;;;;;11.36;66.76;102298.31;5066837;28;20028;-86
2022/03/14 09:03:04;;;;;;;18.77;10.82;;;;;;;11.48;66.31;102300.75;5053294;28;20036;-85
2022/03/14 09:05:30;;;;;;;20.70;10.90;;;;;;;11.61;66.52;102310.19;5070246;28;20052;-85
2022/03/14 09:07:56;;;;;;;16.95;10.43;;;;;;;11.67;65.55;102322.41;5051814;28;20029;-84
2022/03/14 09:10:21;;;;;;;17.63;10.27;;;;;;;11.67;65.50;102325.94;5069952;28;20036;-84
2022/03/14 09:12:48;;;;;;;16.95;10.75;;;;;;;11.77;64.77;102329.25;5070746;28;20228;-84
2022/03/14 09:15:14;;;;;;;23.10;11.13;;;;;;;11.68;65.46;102322.38;5052412;28;20111;-85
2022/03/14 09:17:51;;;;;;;16.08;10.98;;;;;;;11.54;65.58;102337.69;5070875;28;20104;-84
2022/03/14 09:20:19;;;;;;;16.70;9.98;;;;;;;11.54;65.51;102340.34;5070191;28;20040;-85
2022/03/14 09:22:45;;;;;;;21.75;10.38;;;;;;;11.65;65.31;102346.28;5070548;28;20024;-85
2022/03/14 09:25:13;;;;;;;19.20;11.23;;;;;;;11.67;65.29;102347.13;5053072;28;20365;-85
2022/03/14 09:27:39;;;;;;;19.25;10.70;;;;;;;11.95;64.08;102352.75;5071220;28;20048;-85
2022/03/14 09:30:04;;;;;;;15.75;9.68;;;;;;;12.29;63.56;102346.69;5070982;28;20078;-85
2022/03/14 09:32:30;;;;;;;15.60;9.60;;;;;;;12.50;63.00;102348.84;5051251;28;20390;-85
2022/03/14 09:34:59;;;;;;;13.38;8.90;;;;;;;12.49;62.29;102354.16;5042657;28;20033;-85
2022/03/14 09:37:26;;;;;;;16.35;8.85;;;;;;;12.60;61.76;102356.59;5066208;28;20055;-85
2022/03/14 09:39:51;;;;;;;15.20;8.73;;;;;;;12.70;61.08;102361.63;5058071;28;20135;-85
2022/03/14 09:42:20;;;;;;;12.70;8.27;;;;;;;12.94;60.68;102373.41;5070846;28;20480;-85
2022/03/14 09:44:49;;;;;;;14.45;8.40;;;;;;;13.17;59.96;102382.56;5068063;28;20364;-85
2022/03/14 09:47:15;;;;;;;13.75;9.02;;;;;;;13.14;60.12;102374.66;5068922;28;20442;-88
2022/03/14 09:49:44;;;;;;;13.82;8.93;;;;;;;13.07;59.78;102373.97;5069921;28;20016;-86
2022/03/14 09:52:10;;;;;;;12.52;8.02;;;;;;;13.04;60.24;102384.66;5069738;28;20086;-86
2022/03/14 09:54:36;;;;;;;12.93;8.02;;;;;;;13.11;60.16;102396.00;5047451;28;20025;-86
2022/03/14 09:57:01;;;;;;;13.95;9.10;;;;;;;13.06;59.95;102404.09;5070328;28;20434;-85
2022/03/14 09:59:27;;;;;;;15.40;8.93;;;;;;;13.07;60.14;102410.28;5068746;28;20039;-85
2022/03/14 10:01:53;;;;;;;11.40;7.68;;;;;;;13.03;59.56;102407.69;5061928;28;20116;-88
2022/03/14 10:04:18;;;;;;;13.35;7.38;;;;;;;13.09;59.64;102414.63;5046026;28;20043;-86
2022/03/14 10:06:44;;;;;;;14.90;8.05;;;;;;;13.05;59.13;102418.25;5048189;28;20024;-85
2022/03/14 10:09:09;;;;;;;13.18;7.55;;;;;;;12.88;59.73;102421.34;5064760;28;20046;-85
2022/03/14 10:11:35;;;;;;;14.63;7.50;;;;;;;12.84;59.79;102418.81;5068992;28;20025;-85
2022/03/14 10:14:02;;;;;;;12.40;8.07;;;;;;;12.63;60.18;102410.44;5070960;28;20104;-84
2022/03/14 10:16:27;;;;;;;15.73;8.32;;;;;;;12.64;60.53;102417.50;5054246;28;20028;-85
2022/03/14 10:19:01;;;;;;;16.38;7.90;;;;;;;12.87;60.23;102429.31;5072343;28;20460;-85
2022/03/14 10:21:38;;;;;;;12.77;7.90;;;;;;;13.07;59.45;102413.78;5073204;28;20029;-85
2022/03/14 10:24:05;;;;;;;15.05;8.15;;;;;;;13.14;58.63;102420.69;5052377;28;20028;-85
2022/03/14 10:26:33;;;;;;;12.85;6.70;;;;;;;13.27;57.89;102418.63;5070833;28;20412;-85
2022/03/14 10:29:00;;;;;;;12.18;7.20;;;;;;;13.65;57.04;102425.56;5071726;28;20067;-86
2022/03/14 10:31:32;;;;;;;8.05;5.78;;;;;;;13.73;56.50;102430.66;5072418;28;20070;-86
2022/03/14 10:34:04;;;;;;;10.77;5.10;;;;;;;13.62;56.13;102448.72;5054971;28;20028;-86
2022/03/14 10:36:40;;;;;;;10.10;4.63;;;;;;;13.50;56.63;102444.56;5087616;28;20027;-85
2022/03/14 10:39:19;;;;;;;10.52;6.28;;;;;;;13.47;56.37;102440.19;5079861;28;20098;-86
2022/03/14 10:42:02;;;;;;;7.60;6.43;;;;;;;13.61;55.96;102444.28;5077807;28;20379;-86
2022/03/14 10:44:28;;;;;;;12.38;6.80;;;;;;;14.01;54.55;102457.34;5054540;28;20032;-86
2022/03/14 10:46:58;;;;;;;10.90;7.22;;;;;;;14.22;54.61;102451.41;5054628;28;20025;-86
2022/03/14 10:49:33;;;;;;;13.75;6.75;;;;;;;14.45;54.11;102456.00;5069808;28;20089;-85
2022/03/14 10:52:00;;;;;;;11.25;7.13;;;;;;;14.56;53.74;102463.72;5055660;28;20024;-85
2022/03/14 10:54:26;;;;;;;10.07;7.03;;;;;;;14.72;52.68;102454.31;5070468;28;20033;-86
2022/03/14 10:57:09;;;;;;;11.18;7.57;;;;;;;14.91;53.54;102459.94;5055401;28;20411;-85
2022/03/14 10:59:46;;;;;;;11.63;7.43;;;;;;;15.26;52.83;102457.91;5053863;28;20020;-86
2022/03/14 11:02:16;;;;;;;13.63;7.40;;;;;;;15.41;51.37;102461.84;5073300;28;20464;-86
2022/03/14 11:04:44;;;;;;;14.45;7.30;;;;;;;15.09;52.39;102458.47;5070072;28;20025;-86
2022/03/14 11:07:10;;;;;;;11.30;7.35;;;;;;;16.90;48.23;102460.72;5053167;28;20474;-87
2022/03/14 11:09:56;;;;;;;11.77;7.22;;;;;;;18.20;44.49;102464.91;5066524;28;20051;-85
2022/03/14 11:12:24;;;;;;;10.68;6.25;;;;;;;18.46;43.03;102461.00;5049580;28;20043;-85
2022/03/14 11:14:57;;;;;;;11.13;6.53;;;;;;;18.07;44.54;102480.66;5072255;28;20036;-85